Time;durP1;ratioP1;P1;durP2;ratioP2;P2;SDS_P1;SDS_P2;PMS_P1;PMS_P2;Temp;Humidity;BMP_temperature;BMP_pressure;BME280_temperature;BME280_humidity;BME280_pressure;Samples;Min_cycle;Max_cycle;Signal;HPM_P1;HPM_P2
2023/02/11 00:01:18;;;;;;;27.33;8.05;;;;;;;;;;4901125;28;20047;-71
2023/02/11 00:03:56;;;;;;;19.00;7.00;;;;;;;;;;4857598;28;20158;-75
2023/02/11 00:07:01;;;;;;;26.15;8.18;;;;;;;;;;4891113;28;20080;-73
2023/02/11 00:09:28;;;;;;;21.30;7.00;;;;;;;;;;4883023;29;20051;-72
2023/02/11 00:11:54;;;;;;;35.28;7.30;;;;;;;;;;4969505;28;20062;-73
2023/02/11 00:14:23;;;;;;;21.55;6.97;;;;;;;;;;4961642;28;21205;-70
2023/02/11 00:16:49;;;;;;;18.38;7.00;;;;;;;;;;4980395;28;20046;-77
2023/02/11 00:19:31;;;;;;;26.27;6.97;;;;;;;;;;4952929;28;20054;-78
2023/02/11 00:22:01;;;;;;;19.50;6.45;;;;;;;;;;4916762;28;20205;-76
2023/02/11 00:24:28;;;;;;;14.98;5.75;;;;;;;;;;4895142;28;20157;-71
2023/02/11 00:26:57;;;;;;;14.13;6.10;;;;;;;;;;4884226;28;20457;-79
2023/02/11 00:29:30;;;;;;;17.42;6.03;;;;;;;;;;4929314;28;20058;-76
2023/02/11 00:39:30;;;;;;;13.52;5.43;;;;;;;;;;5050516;27;20589;-75
2023/02/11 00:42:01;;;;;;;17.40;5.35;;;;;;;;;;5024634;28;20053;-73
2023/02/11 00:44:30;;;;;;;15.18;5.53;;;;;;;;;;5014295;28;20081;-75
2023/02/11 00:54:34;;;;;;;17.42;5.30;;;;;;;;;;5065816;27;20401;-69
2023/02/11 00:57:03;;;;;;;15.98;4.88;;;;;;;;;;4996423;28;20109;-73
2023/02/11 00:59:32;;;;;;;16.55;5.05;;;;;;;;;;4969537;28;20057;-77
2023/02/11 01:01:58;;;;;;;;;;;;;;;;;;5008906;28;20071;-72
2023/02/11 01:04:35;;;;;;;15.77;4.65;;;;;;;;;;5002951;28;19925;-75
2023/02/11 01:07:02;;;;;;;12.35;4.75;;;;;;;;;;4976362;28;20054;-76
2023/02/11 01:09:33;;;;;;;13.52;4.90;;;;;;;;;;4976450;28;20057;-71
2023/02/11 01:12:09;;;;;;;14.40;4.68;;;;;;;;;;4952828;28;20118;-76
2023/02/11 01:19:29;;;;;;;17.58;4.97;;;;;;;;;;4908962;28;20110;-78
2023/02/11 01:21:56;;;;;;;11.93;3.95;;;;;;;;;;4964738;28;20306;-75
2023/02/11 01:24:28;;;;;;;12.65;4.00;;;;;;;;;;4942183;28;20055;-69
2023/02/11 01:30:05;;;;;;;10.40;3.85;;;;;;;;;;5059115;27;20460;-74
2023/02/11 01:32:35;;;;;;;16.92;4.00;;;;;;;;;;5009729;28;20136;-81
2023/02/11 01:35:07;;;;;;;14.02;3.88;;;;;;;;;;4973543;28;20052;-78
2023/02/11 01:40:05;;;;;;;14.25;4.22;;;;;;;;;;4870328;28;20043;-71
2023/02/11 01:42:32;;;;;;;11.55;3.92;;;;;;;;;;4908832;28;20063;-76
2023/02/11 01:45:19;;;;;;;12.35;4.30;;;;;;;;;;4944522;28;20054;-75
2023/02/11 01:47:51;;;;;;;11.18;3.50;;;;;;;;;;4953248;28;20066;-70
2023/02/11 01:50:18;;;;;;;11.15;3.70;;;;;;;;;;4950739;28;20064;-73
2023/02/11 01:52:48;;;;;;;15.32;3.90;;;;;;;;;;4941847;28;20058;-75
2023/02/11 01:58:08;;;;;;;14.95;3.58;;;;;;;;;;4910401;28;20046;-76
2023/02/11 02:00:36;;;;;;;10.40;3.83;;;;;;;;;;4887799;29;20064;-85
2023/02/11 02:03:21;;;;;;;10.85;3.38;;;;;;;;;;4921818;28;20180;-80
2023/02/11 02:08:55;;;;;;;7.95;3.33;;;;;;;;;;4932639;28;20050;-80
2023/02/11 02:11:22;;;;;;;8.82;3.20;;;;;;;;;;4956025;28;20131;-76
2023/02/11 02:13:49;;;;;;;11.85;3.90;;;;;;;;;;4972408;28;20045;-79
2023/02/11 02:16:18;;;;;;;14.90;4.00;;;;;;;;;;4908926;28;20057;-74
2023/02/11 02:18:52;;;;;;;6.50;2.97;;;;;;;;;;4934321;28;20074;-70
2023/02/11 02:21:25;;;;;;;12.68;3.30;;;;;;;;;;4954779;28;20113;-80
2023/02/11 02:24:07;;;;;;;14.45;3.45;;;;;;;;;;4985187;28;20076;-77
2023/02/11 02:26:47;;;;;;;11.20;3.60;;;;;;;;;;4874099;29;20068;-74
2023/02/11 02:29:22;;;;;;;9.95;3.33;;;;;;;;;;4971273;28;20064;-72
2023/02/11 02:32:01;;;;;;;13.05;3.90;;;;;;;;;;5016151;28;20056;-75
2023/02/11 02:34:36;;;;;;;9.90;3.13;;;;;;;;;;5028198;28;20053;-76
2023/02/11 02:37:05;;;;;;;13.07;3.80;;;;;;;;;;4989942;28;20094;-75
2023/02/11 02:39:36;;;;;;;8.07;2.88;;;;;;;;;;4998655;28;20057;-70
2023/02/11 02:42:03;;;;;;;10.75;3.17;;;;;;;;;;4985378;28;20049;-70
2023/02/11 02:44:29;;;;;;;11.45;3.42;;;;;;;;;;4980903;28;20056;-75
2023/02/11 02:46:56;;;;;;;9.25;3.05;;;;;;;;;;4959651;28;20080;-71
2023/02/11 02:49:23;;;;;;;9.38;3.20;;;;;;;;;;4983414;28;20131;-82
2023/02/11 02:52:03;;;;;;;12.38;3.55;;;;;;;;;;5005271;28;20164;-70
2023/02/11 02:54:37;;;;;;;12.02;3.25;;;;;;;;;;4999645;28;20064;-77
2023/02/11 02:57:07;;;;;;;10.13;3.03;;;;;;;;;;4920815;28;20046;-73
2023/02/11 02:59:39;;;;;;;9.43;3.38;;;;;;;;;;4987583;28;20045;-75
2023/02/11 03:02:10;;;;;;;8.27;3.10;;;;;;;;;;4980949;28;20046;-75
2023/02/11 03:04:42;;;;;;;8.73;2.90;;;;;;;;;;4953125;28;20057;-78
2023/02/11 03:07:17;;;;;;;11.40;3.72;;;;;;;;;;5020893;28;20057;-71
2023/02/11 03:09:48;;;;;;;15.70;2.78;;;;;;;;;;4985811;28;20064;-74
2023/02/11 03:12:15;;;;;;;12.65;3.70;;;;;;;;;;4977865;28;20053;-74
2023/02/11 03:14:42;;;;;;;18.27;3.33;;;;;;;;;;4845535;28;20062;-79
2023/02/11 03:17:10;;;;;;;11.43;3.65;;;;;;;;;;4951129;28;21462;-73
2023/02/11 03:19:38;;;;;;;15.95;3.50;;;;;;;;;;4984544;28;20165;-81
2023/02/11 03:22:07;;;;;;;11.65;3.15;;;;;;;;;;4976289;28;20084;-76
2023/02/11 03:24:48;;;;;;;11.52;3.65;;;;;;;;;;4939202;28;20472;-74
2023/02/11 03:27:20;;;;;;;13.73;3.30;;;;;;;;;;4972627;28;20131;-75
2023/02/11 03:29:53;;;;;;;14.20;3.40;;;;;;;;;;4964774;28;20062;-80
2023/02/11 03:32:23;;;;;;;11.95;3.75;;;;;;;;;;4985026;28;20152;-77
2023/02/11 03:34:55;;;;;;;13.35;2.95;;;;;;;;;;4935911;28;20104;-80
2023/02/11 03:37:24;;;;;;;12.75;3.65;;;;;;;;;;4976539;28;20060;-67
2023/02/11 03:40:00;;;;;;;10.98;3.63;;;;;;;;;;4991295;28;20084;-78
2023/02/11 03:42:28;;;;;;;12.18;3.45;;;;;;;;;;4977053;28;20049;-81
2023/02/11 03:44:58;;;;;;;9.90;3.28;;;;;;;;;;4963604;28;20057;-74
2023/02/11 03:47:26;;;;;;;10.18;3.60;;;;;;;;;;4999191;28;20053;-79
2023/02/11 03:49:58;;;;;;;14.95;3.63;;;;;;;;;;4969330;28;20316;-83
2023/02/11 03:52:26;;;;;;;9.20;3.13;;;;;;;;;;4932832;28;20070;-79
2023/02/11 03:54:56;;;;;;;13.53;3.70;;;;;;;;;;4919702;28;20059;-76
2023/02/11 03:57:25;;;;;;;10.10;3.60;;;;;;;;;;4924336;28;20062;-79
2023/02/11 03:59:53;;;;;;;12.00;3.42;;;;;;;;;;4949203;28;20173;-76
2023/02/11 04:02:20;;;;;;;9.67;3.90;;;;;;;;;;4951090;28;20059;-82
2023/02/11 04:04:47;;;;;;;10.95;3.40;;;;;;;;;;4897290;28;20397;-73
2023/02/11 04:07:17;;;;;;;13.30;4.00;;;;;;;;;;4901309;28;20094;-75
2023/02/11 04:09:43;;;;;;;10.43;3.65;;;;;;;;;;4918165;28;20087;-77
2023/02/11 04:12:13;;;;;;;11.52;4.10;;;;;;;;;;4910106;28;20107;-78
2023/02/11 04:14:43;;;;;;;13.48;3.50;;;;;;;;;;4870945;29;20059;-73
2023/02/11 04:17:12;;;;;;;15.13;3.72;;;;;;;;;;4876340;29;20058;-79
2023/02/11 04:19:39;;;;;;;11.98;4.07;;;;;;;;;;4901291;28;20071;-73
2023/02/11 04:22:06;;;;;;;12.90;4.18;;;;;;;;;;4896040;28;20066;-76
2023/02/11 04:24:47;;;;;;;10.52;3.78;;;;;;;;;;4908905;28;20063;-74
2023/02/11 04:29:52;;;;;;;12.35;4.25;;;;;;;;;;4865512;29;20086;-73
2023/02/11 04:37:31;;;;;;;9.93;3.80;;;;;;;;;;4810792;29;20132;-71
2023/02/11 04:39:58;;;;;;;12.20;3.88;;;;;;;;;;4872668;29;20340;-75
2023/02/11 04:42:27;;;;;;;14.80;4.28;;;;;;;;;;4859792;29;20055;-72
2023/02/11 04:44:55;;;;;;;11.52;4.20;;;;;;;;;;4871173;29;20107;-70
2023/02/11 04:47:22;;;;;;;12.65;4.15;;;;;;;;;;4883046;28;20056;-77
2023/02/11 04:49:50;;;;;;;17.25;4.65;;;;;;;;;;4908725;28;20117;-70
2023/02/11 04:52:17;;;;;;;15.18;5.07;;;;;;;;;;4980678;28;20378;-73
2023/02/11 04:54:43;;;;;;;14.25;4.10;;;;;;;;;;4992007;28;20057;-80
2023/02/11 04:57:10;;;;;;;9.32;3.88;;;;;;;;;;5002039;28;20072;-70
2023/02/11 04:59:39;;;;;;;13.98;4.55;;;;;;;;;;4968753;28;20061;-71
2023/02/11 05:02:12;;;;;;;13.75;4.13;;;;;;;;;;4970732;28;20049;-73
2023/02/11 05:07:04;;;;;;;15.02;5.15;;;;;;;;;;4858986;29;20117;-78
2023/02/11 05:09:31;;;;;;;12.52;4.40;;;;;;;;;;4956354;28;20057;-73
2023/02/11 05:11:58;;;;;;;13.80;4.25;;;;;;;;;;4976308;28;20219;-73
2023/02/11 05:14:24;;;;;;;11.25;4.05;;;;;;;;;;4934202;28;20057;-76
2023/02/11 05:16:53;;;;;;;11.68;4.60;;;;;;;;;;4939692;28;20050;-71
2023/02/11 05:19:21;;;;;;;17.02;4.70;;;;;;;;;;4946699;28;20054;-68
2023/02/11 05:21:47;;;;;;;17.93;4.60;;;;;;;;;;4952189;28;20053;-78
2023/02/11 05:24:14;;;;;;;11.43;4.07;;;;;;;;;;4895562;28;20076;-74
2023/02/11 05:26:40;;;;;;;11.13;4.60;;;;;;;;;;4954340;28;20082;-71
2023/02/11 05:29:10;;;;;;;15.00;5.22;;;;;;;;;;5000110;28;20054;-67
2023/02/11 05:31:36;;;;;;;13.38;4.80;;;;;;;;;;4961775;28;20065;-77
2023/02/11 05:34:03;;;;;;;13.57;4.80;;;;;;;;;;4919677;28;20437;-72
2023/02/11 05:36:31;;;;;;;13.05;4.65;;;;;;;;;;4970051;28;20058;-72
2023/02/11 05:38:59;;;;;;;14.38;4.78;;;;;;;;;;4945667;28;20058;-77
2023/02/11 05:41:26;;;;;;;14.37;4.97;;;;;;;;;;4944356;28;20060;-69
2023/02/11 05:43:54;;;;;;;;;;;;;;;;;;4965906;28;20053;-73
2023/02/11 05:46:21;;;;;;;15.68;4.93;;;;;;;;;;4965597;28;19921;-78
2023/02/11 05:48:48;;;;;;;14.07;5.40;;;;;;;;;;4989728;28;20058;-71
2023/02/11 05:51:17;;;;;;;14.35;5.20;;;;;;;;;;4976260;28;20049;-72
2023/02/11 05:53:45;;;;;;;18.30;5.90;;;;;;;;;;4987087;28;20155;-79
2023/02/11 05:56:13;;;;;;;12.65;5.00;;;;;;;;;;4917625;28;20128;-71
2023/02/11 05:58:41;;;;;;;17.20;5.25;;;;;;;;;;4991951;28;20080;-74
2023/02/11 06:01:10;;;;;;;13.00;5.10;;;;;;;;;;4979991;28;20081;-79
2023/02/11 06:03:38;;;;;;;13.95;4.82;;;;;;;;;;4907887;28;20102;-77
2023/02/11 06:06:10;;;;;;;17.95;5.82;;;;;;;;;;4901725;28;20079;-76
2023/02/11 06:08:39;;;;;;;16.17;5.53;;;;;;;;;;4972225;28;20240;-78
2023/02/11 06:11:14;;;;;;;24.88;6.13;;;;;;;;;;4979030;28;20085;-78
2023/02/11 06:13:44;;;;;;;21.45;6.38;;;;;;;;;;5007689;28;20109;-71
2023/02/11 06:16:10;;;;;;;18.02;5.40;;;;;;;;;;4943590;28;20107;-76
2023/02/11 06:18:37;;;;;;;19.15;6.18;;;;;;;;;;4982777;28;20149;-76
2023/02/11 06:21:13;;;;;;;20.40;5.85;;;;;;;;;;4991994;28;20077;-76
2023/02/11 06:23:49;;;;;;;20.88;5.82;;;;;;;;;;4979583;28;20050;-77
2023/02/11 06:26:21;;;;;;;17.20;6.10;;;;;;;;;;4948952;28;20079;-71
2023/02/11 06:28:50;;;;;;;14.70;6.10;;;;;;;;;;4978898;28;20053;-73
2023/02/11 06:31:21;;;;;;;16.90;6.32;;;;;;;;;;4958418;28;20053;-78
2023/02/11 06:33:49;;;;;;;16.40;5.95;;;;;;;;;;4977196;28;20085;-76
2023/02/11 06:36:17;;;;;;;21.30;6.60;;;;;;;;;;4936324;28;20053;-81
2023/02/11 06:38:45;;;;;;;16.92;6.45;;;;;;;;;;5020818;28;20045;-72
2023/02/11 06:41:14;;;;;;;20.77;6.87;;;;;;;;;;4995606;28;20050;-74
2023/02/11 06:43:43;;;;;;;17.83;6.63;;;;;;;;;;5001781;28;20421;-76
2023/02/11 06:46:15;;;;;;;22.33;7.35;;;;;;;;;;4919268;28;20058;-78
2023/02/11 06:48:41;;;;;;;16.75;6.13;;;;;;;;;;4965822;28;20184;-79
2023/02/11 06:51:25;;;;;;;18.50;6.68;;;;;;;;;;4960956;28;20078;-73
2023/02/11 06:53:52;;;;;;;18.17;6.80;;;;;;;;;;4938413;28;20058;-73
2023/02/11 06:56:22;;;;;;;24.65;7.75;;;;;;;;;;4946026;28;20076;-72
2023/02/11 06:58:52;;;;;;;22.00;7.00;;;;;;;;;;4968238;28;20053;-77
2023/02/11 07:01:21;;;;;;;17.60;6.88;;;;;;;;;;4917987;28;20238;-75
2023/02/11 07:03:55;;;;;;;19.88;7.57;;;;;;;;;;4872839;29;20056;-79
2023/02/11 07:09:11;;;;;;;17.05;6.65;;;;;;;;;;5110531;27;20693;-75
2023/02/11 07:11:40;;;;;;;21.42;7.25;;;;;;;;;;5022668;28;20134;-76
2023/02/11 07:14:12;;;;;;;15.70;6.90;;;;;;;;;;5026961;28;20056;-77
2023/02/11 07:16:39;;;;;;;17.58;7.22;;;;;;;;;;4970131;28;20084;-72
2023/02/11 07:19:06;;;;;;;19.88;7.90;;;;;;;;;;4997494;28;20111;-79
2023/02/11 07:21:35;;;;;;;24.42;7.25;;;;;;;;;;4998874;28;20058;-73
2023/02/11 07:24:13;;;;;;;18.13;7.85;;;;;;;;;;4972514;28;20073;-71
2023/02/11 07:29:33;;;;;;;;;;;;;;;;;;;;;
2023/02/11 07:32:06;;;;;;;21.73;7.43;;;;;;;;;;4998790;28;20046;-71
2023/02/11 07:34:41;;;;;;;24.70;7.68;;;;;;;;;;4973965;28;20060;-71
2023/02/11 07:40:12;;;;;;;22.80;8.75;;;;;;;;;;5040832;27;20432;-73
2023/02/11 07:42:40;;;;;;;20.55;8.32;;;;;;;;;;5018622;28;20055;-74
2023/02/11 07:45:12;;;;;;;19.30;7.90;;;;;;;;;;5033804;28;20101;-73
2023/02/11 07:47:44;;;;;;;21.98;8.13;;;;;;;;;;4900930;28;20133;-71
2023/02/11 07:50:16;;;;;;;25.60;8.45;;;;;;;;;;4958342;28;20065;-74
2023/02/11 07:52:50;;;;;;;23.90;8.80;;;;;;;;;;4945623;28;20145;-69
2023/02/11 07:55:23;;;;;;;19.42;7.65;;;;;;;;;;4962204;28;20130;-79
2023/02/11 07:57:52;;;;;;;20.73;8.73;;;;;;;;;;4947846;28;20051;-78
2023/02/11 08:00:19;;;;;;;26.10;8.88;;;;;;;;;;4955516;28;20384;-77
2023/02/11 08:02:48;;;;;;;19.90;7.88;;;;;;;;;;4946182;28;20046;-83
2023/02/11 08:05:15;;;;;;;;;;;;;;;;;;4921994;28;20071;-74
2023/02/11 08:07:42;;;;;;;19.75;7.85;;;;;;;;;;4938766;28;19924;-76
2023/02/11 08:10:15;;;;;;;18.80;8.38;;;;;;;;;;4991689;28;20062;-84
2023/02/11 08:12:44;;;;;;;24.15;7.53;;;;;;;;;;4994931;28;20151;-78
2023/02/11 08:15:10;;;;;;;30.27;9.30;;;;;;;;;;5011209;28;20061;-74
2023/02/11 08:17:42;;;;;;;20.45;9.00;;;;;;;;;;4988710;28;20106;-75
2023/02/11 08:20:10;;;;;;;21.60;8.63;;;;;;;;;;4991948;28;20056;-70
2023/02/11 08:22:42;;;;;;;24.25;9.30;;;;;;;;;;4981826;28;20069;-76
2023/02/11 08:27:45;;;;;;;26.20;9.35;;;;;;;;;;4875366;28;20865;-74
2023/02/11 08:30:13;;;;;;;23.23;9.10;;;;;;;;;;4886775;29;20052;-71
2023/02/11 08:32:40;;;;;;;24.95;9.77;;;;;;;;;;4909069;28;20052;-72
2023/02/11 08:35:11;;;;;;;23.67;8.52;;;;;;;;;;4902524;28;20061;-80
2023/02/11 08:37:43;;;;;;;21.73;8.95;;;;;;;;;;4996303;28;20059;-76
2023/02/11 08:40:10;;;;;;;27.52;8.85;;;;;;;;;;5036883;28;20107;-74
2023/02/11 08:42:37;;;;;;;32.92;10.15;;;;;;;;;;5001906;28;20057;-78
2023/02/11 08:45:19;;;;;;;20.42;8.38;;;;;;;;;;5018137;28;20139;-79
2023/02/11 08:53:02;;;;;;;31.55;11.02;;;;;;;;;;5052230;27;20562;-76
2023/02/11 08:55:46;;;;;;;24.60;9.07;;;;;;;;;;4946453;28;20046;-70
2023/02/11 08:58:13;;;;;;;25.88;9.57;;;;;;;;;;4901885;28;20051;-73
2023/02/11 09:00:44;;;;;;;30.25;10.93;;;;;;;;;;4914003;28;20047;-78
2023/02/11 09:03:11;;;;;;;33.40;10.77;;;;;;;;;;4965086;28;20140;-79
2023/02/11 09:05:44;;;;;;;30.60;10.73;;;;;;;;;;4973142;28;20050;-80
2023/02/11 09:08:14;;;;;;;31.95;10.25;;;;;;;;;;4957610;28;20089;-78
2023/02/11 09:10:49;;;;;;;28.45;10.52;;;;;;;;;;4971119;28;20081;-77
2023/02/11 09:13:27;;;;;;;31.08;10.93;;;;;;;;;;4962463;28;20050;-81
2023/02/11 09:18:52;;;;;;;24.27;9.65;;;;;;;;;;4935343;27;20430;-82
2023/02/11 09:29:38;;;;;;;35.65;11.93;;;;;;;;;;4709231;27;9132354;-77
2023/02/11 09:32:04;;;;;;;;;;;;;;;;;;4902627;28;20051;-72
2023/02/11 09:34:34;;;;;;;29.80;11.98;;;;;;;;;;4905854;28;19927;-72
2023/02/11 09:40:04;;;;;;;31.25;12.85;;;;;;;;;;5038931;27;20514;-75
2023/02/11 09:42:37;;;;;;;;;;;;;;;;;;4927456;28;20054;-76
2023/02/11 09:45:16;;;;;;;33.75;12.20;;;;;;;;;;4923747;28;19929;-81
2023/02/11 09:53:06;;;;;;;39.30;13.45;;;;;;;;;;4980200;28;20442;-76
2023/02/11 09:55:38;;;;;;;31.65;12.98;;;;;;;;;;4946157;28;20046;-75
2023/02/11 09:58:13;;;;;;;35.88;12.38;;;;;;;;;;4860589;28;20143;-77
2023/02/11 10:06:18;;;;;;;37.50;13.35;;;;;;;;;;5064084;27;20450;-72
2023/02/11 10:08:53;;;;;;;38.05;13.95;;;;;;;;;;4869828;28;20075;-71
2023/02/11 10:11:35;;;;;;;42.33;13.43;;;;;;;;;;4877748;28;20066;-77
2023/02/11 10:14:08;;;;;;;41.67;13.50;;;;;;;;;;4895150;28;20060;-77
2023/02/11 10:21:58;;;;;;;34.53;12.38;;;;;;;;;;4966488;27;20499;-75
2023/02/11 10:24:53;;;;;;;32.28;13.40;;;;;;;;;;4858159;29;20064;-70
2023/02/11 10:30:23;;;;;;;40.75;12.95;;;;;;;;;;5027662;27;20508;-69
2023/02/11 10:32:52;;;;;;;32.72;13.88;;;;;;;;;;4925310;28;20205;-80
2023/02/11 10:41:01;;;;;;;34.17;12.75;;;;;;;;;;4963271;27;20394;-79
2023/02/11 10:59:49;;;;;;;33.47;13.30;;;;;;;;;;6081605;22;3316167;-68
2023/02/11 11:02:24;;;;;;;29.05;11.95;;;;;;;;;;6153033;23;20180;-69
2023/02/11 11:04:57;;;;;;;35.63;12.75;;;;;;;;;;6104933;23;20212;-70
2023/02/11 11:07:30;;;;;;;33.10;12.93;;;;;;;;;;6108352;23;20059;-76
2023/02/11 11:10:07;;;;;;;32.03;12.38;;;;;;;;;;6124390;23;20207;-72
2023/02/11 11:12:39;;;;;;;29.00;13.05;;;;;;;;;;6094099;23;20053;-73
2023/02/11 11:15:21;;;;;;;29.25;12.23;;;;;;;;;;6122010;23;20020;-72
2023/02/11 11:18:03;;;;;;;31.27;12.00;;;;;;;;;;6074989;23;20020;-80
2023/02/11 11:20:47;;;;;;;29.83;11.75;;;;;;;;;;6092383;23;20039;-78
2023/02/11 11:23:18;;;;;;;32.00;12.20;;;;;;;;;;6122128;23;20017;-69
2023/02/11 11:25:46;;;;;;;32.03;13.32;;;;;;;;;;6180042;22;20030;-75
2023/02/11 11:28:23;;;;;;;25.77;10.93;;;;;;;;;;6083066;23;20040;-79
2023/02/11 11:30:53;;;;;;;26.20;11.30;;;;;;;;;;6096409;23;20611;-74
2023/02/11 11:33:26;;;;;;;25.55;11.55;;;;;;;;;;6133602;23;20284;-73
2023/02/11 11:36:04;;;;;;;28.15;11.63;;;;;;;;;;6090350;23;20021;-73
2023/02/11 11:38:35;;;;;;;25.40;10.95;;;;;;;;;;6045638;23;20492;-74
2023/02/11 11:41:34;;;;;;;27.85;11.35;;;;;;;;;;6049426;23;20025;-71
2023/02/11 11:44:26;;;;;;;30.48;11.52;;;;;;;;;;6035126;23;20031;-72
2023/02/11 11:47:24;;;;;;;28.55;11.68;;;;;;;;;;5992609;23;20048;-73
2023/02/11 11:53:03;;;;;;;24.17;10.50;;;;;;;;;;5019695;27;20536;-75
2023/02/11 11:56:06;;;;;;;21.08;9.90;;;;;;;;;;5012291;28;20145;-78
2023/02/11 11:58:37;;;;;;;25.77;11.18;;;;;;;;;;4955908;28;20058;-76
2023/02/11 12:01:27;;;;;;;23.58;10.32;;;;;;;;;;4976510;28;20053;-70
2023/02/11 12:23:22;;;;;;;26.27;8.95;;;;;;;;;;5045401;28;20506;-73
2023/02/11 12:25:58;;;;;;;23.88;9.70;;;;;;;;;;5012122;28;20168;-70
2023/02/11 12:28:40;;;;;;;23.27;9.40;;;;;;;;;;4983569;28;20055;-74
2023/02/11 12:31:21;;;;;;;20.50;9.40;;;;;;;;;;5022630;28;20059;-72
2023/02/11 12:33:57;;;;;;;24.77;10.10;;;;;;;;;;5019142;28;20048;-68
2023/02/11 12:36:44;;;;;;;22.58;9.35;;;;;;;;;;4984865;28;20053;-71
2023/02/11 12:52:58;;;;;;;21.30;9.80;;;;;;;;;;5893384;22;8258076;-77
2023/02/11 12:55:34;;;;;;;18.48;8.50;;;;;;;;;;6137714;23;20025;-72
2023/02/11 13:03:56;;;;;;;21.17;8.13;;;;;;;;;;4940443;27;20606;-71
2023/02/11 13:13:24;;;;;;;21.45;8.93;;;;;;;;;;5006384;27;20438;-78
2023/02/11 13:15:55;;;;;;;18.98;8.65;;;;;;;;;;4955927;28;20073;-76
2023/02/11 13:18:30;;;;;;;19.48;8.68;;;;;;;;;;4952509;28;20229;-78
2023/02/11 13:26:56;;;;;;;18.63;8.75;;;;;;;;;;5064292;27;20438;-75
2023/02/11 13:29:37;;;;;;;19.02;9.02;;;;;;;;;;4900224;28;20061;-76
2023/02/11 13:53:26;;;;;;;23.38;7.80;;;;;;;;;;5040590;27;20442;-79
2023/02/11 13:56:06;;;;;;;17.30;7.90;;;;;;;;;;4997452;28;20081;-85
2023/02/11 13:58:40;;;;;;;;;;;;;;;;;;4982393;28;20111;-77
2023/02/11 14:01:13;;;;;;;;;;;;;;;;;;4963910;28;19924;-74
2023/02/11 14:15:40;;;;;;;16.30;7.82;;;;;;;;;;5020907;27;20481;-75
2023/02/11 14:18:30;;;;;;;19.65;8.13;;;;;;;;;;4944087;28;20058;-77
2023/02/11 14:24:15;;;;;;;14.75;7.47;;;;;;;;;;5011328;27;20534;-68
2023/02/11 14:26:47;;;;;;;18.83;7.72;;;;;;;;;;4966037;28;20061;-75
2023/02/11 14:34:31;;;;;;;15.70;7.25;;;;;;;;;;5087469;27;20457;-67
2023/02/11 15:12:36;;;;;;;18.52;8.60;;;;;;;;;;5476572;22;17144373;-80
2023/02/11 15:15:10;;;;;;;15.45;7.25;;;;;;;;;;6051292;23;20500;-72
2023/02/11 15:17:38;;;;;;;14.52;7.25;;;;;;;;;;6011351;23;20081;-75
2023/02/11 15:20:15;;;;;;;18.45;7.32;;;;;;;;;;6016366;23;20355;-79
2023/02/11 15:22:50;;;;;;;14.27;6.45;;;;;;;;;;5961378;23;20051;-68
2023/02/11 15:25:29;;;;;;;14.90;6.80;;;;;;;;;;5972421;23;20113;-75
2023/02/11 15:28:01;;;;;;;15.10;6.60;;;;;;;;;;5982083;23;20022;-70
2023/02/11 15:30:50;;;;;;;14.10;6.55;;;;;;;;;;5989857;23;20030;-77
2023/02/11 15:36:38;;;;;;;13.23;6.57;;;;;;;;;;5028342;27;20418;-76
2023/02/11 15:39:18;;;;;;;16.88;6.15;;;;;;;;;;4877486;28;20083;-83
2023/02/11 15:44:42;;;;;;;12.60;6.10;;;;;;;;;;4939913;27;3673450;-68
2023/02/11 15:47:22;;;;;;;14.40;6.07;;;;;;;;;;5020532;28;20319;-74
2023/02/11 15:49:54;;;;;;;11.75;5.53;;;;;;;;;;5007513;28;20249;-77
2023/02/11 15:56:17;;;;;;;13.35;5.80;;;;;;;;;;5016485;28;20057;-76
2023/02/11 15:58:46;;;;;;;12.48;5.85;;;;;;;;;;4990309;28;20056;-70
2023/02/11 16:01:19;;;;;;;14.32;6.45;;;;;;;;;;4984582;28;20065;-74
2023/02/11 16:03:55;;;;;;;11.30;5.40;;;;;;;;;;4967390;28;20048;-77
2023/02/11 16:06:37;;;;;;;12.25;5.50;;;;;;;;;;4964567;28;20093;-77
2023/02/11 16:09:05;;;;;;;11.27;5.43;;;;;;;;;;4968802;28;20056;-77
2023/02/11 16:16:52;;;;;;;12.43;5.28;;;;;;;;;;4985749;28;20501;-79
2023/02/11 16:19:21;;;;;;;12.15;5.85;;;;;;;;;;4925607;28;20161;-75
2023/02/11 16:24:48;;;;;;;9.68;4.78;;;;;;;;;;5029704;28;20130;-74
2023/02/11 16:27:21;;;;;;;10.05;5.53;;;;;;;;;;5036989;28;20116;-74
2023/02/11 16:29:51;;;;;;;9.50;4.65;;;;;;;;;;5001937;28;20052;-73
2023/02/11 16:40:38;;;;;;;9.63;4.70;;;;;;;;;;5012520;27;20837;-80
2023/02/11 16:43:08;;;;;;;10.55;5.10;;;;;;;;;;4934569;28;20104;-76
2023/02/11 16:45:53;;;;;;;;;;;;;;;;;;;;;
2023/02/11 16:48:28;;;;;;;9.15;4.57;;;;;;;;;;4932398;28;20046;-74
2023/02/11 16:56:12;;;;;;;11.65;4.63;;;;;;;;;;4950889;27;20508;-75
2023/02/11 17:08:50;;;;;;;12.32;4.63;;;;;;;;;;5075317;27;20494;-78
2023/02/11 17:11:18;;;;;;;11.07;4.75;;;;;;;;;;5013008;28;20524;-73
2023/02/11 17:13:45;;;;;;;9.15;4.13;;;;;;;;;;4933862;28;20116;-75
2023/02/11 17:16:16;;;;;;;10.32;4.85;;;;;;;;;;4923794;28;20094;-75
2023/02/11 17:18:44;;;;;;;9.13;4.47;;;;;;;;;;4927169;28;20050;-68
2023/02/11 17:26:53;;;;;;;9.55;3.97;;;;;;;;;;5037715;27;20472;-76
2023/02/11 17:29:25;;;;;;;;;;;;;;;;;;4934776;28;20041;-72
2023/02/11 17:31:53;;;;;;;8.43;3.92;;;;;;;;;;4997731;28;19925;-78
2023/02/11 17:34:27;;;;;;;8.60;4.35;;;;;;;;;;4928740;28;20058;-69
2023/02/11 17:36:59;;;;;;;8.73;4.22;;;;;;;;;;4867539;29;20047;-74
2023/02/11 17:41:53;;;;;;;9.40;4.20;;;;;;;;;;4836266;29;20049;-68
2023/02/11 17:44:23;;;;;;;9.80;4.60;;;;;;;;;;4898558;28;20106;-72
2023/02/11 17:46:58;;;;;;;9.77;4.95;;;;;;;;;;4909594;28;20063;-68
2023/02/11 17:49:28;;;;;;;9.55;4.32;;;;;;;;;;4881359;28;20103;-73
2023/02/11 17:52:10;;;;;;;9.52;4.22;;;;;;;;;;4811570;29;20072;-70
2023/02/11 18:02:22;;;;;;;11.07;4.88;;;;;;;;;;4999846;27;20531;-71
2023/02/11 18:04:52;;;;;;;9.88;4.25;;;;;;;;;;4981658;28;20064;-73
2023/02/11 18:07:24;;;;;;;10.50;4.40;;;;;;;;;;4946456;28;20108;-78
2023/02/11 18:15:16;;;;;;;9.95;4.65;;;;;;;;;;5005273;27;20519;-76
2023/02/11 18:20:14;;;;;;;13.57;5.00;;;;;;;;;;4917689;28;20051;-76
2023/02/11 18:30:14;;;;;;;6.97;3.97;;;;;;;;;;4928825;28;20108;-75
2023/02/11 18:38:39;;;;;;;11.68;4.65;;;;;;;;;;5026516;28;20444;-78
2023/02/11 18:41:20;;;;;;;10.52;4.85;;;;;;;;;;4938943;28;20046;-76
2023/02/11 18:44:01;;;;;;;11.20;4.00;;;;;;;;;;4866208;28;20134;-76
2023/02/11 18:46:39;;;;;;;11.82;4.53;;;;;;;;;;4877000;29;20054;-77
2023/02/11 18:49:16;;;;;;;9.02;4.10;;;;;;;;;;4882670;28;20158;-75
2023/02/11 18:51:43;;;;;;;10.63;4.72;;;;;;;;;;4928855;28;20070;-70
2023/02/11 18:54:33;;;;;;;9.65;4.20;;;;;;;;;;4850450;29;20258;-77
2023/02/11 19:07:07;;;;;;;9.73;5.03;;;;;;;;;;5052278;27;20703;-74
2023/02/11 19:09:43;;;;;;;9.35;4.18;;;;;;;;;;4934580;28;21603;-72
2023/02/11 19:12:14;;;;;;;13.60;4.38;;;;;;;;;;4936462;28;20054;-74
2023/02/11 19:19:44;;;;;;;8.98;4.32;;;;;;;;;;4880617;28;20058;-76
2023/02/11 19:22:17;;;;;;;9.48;4.28;;;;;;;;;;4916342;28;20131;-70
2023/02/11 19:32:29;;;;;;;9.82;4.68;;;;;;;;;;4988781;27;20478;-72
2023/02/11 19:40:43;;;;;;;9.63;4.43;;;;;;;;;;4997039;27;20133;-74
2023/02/11 19:48:46;;;;;;;10.38;4.72;;;;;;;;;;4740975;27;10140833;-71
2023/02/11 19:51:34;;;;;;;9.95;4.60;;;;;;;;;;5027267;28;20056;-76
2023/02/11 19:54:06;;;;;;;10.93;4.57;;;;;;;;;;4967726;28;20170;-76
2023/02/11 19:57:01;;;;;;;11.02;4.90;;;;;;;;;;4930931;28;20046;-73
2023/02/11 20:15:40;;;;;;;11.48;4.93;;;;;;;;;;4967344;27;20471;-76
2023/02/11 20:18:23;;;;;;;10.43;4.22;;;;;;;;;;4937436;28;20115;-73
2023/02/11 20:20:59;;;;;;;10.40;4.47;;;;;;;;;;4940068;28;20078;-75
2023/02/11 20:23:26;;;;;;;11.27;4.80;;;;;;;;;;4942289;28;20094;-76
2023/02/11 20:25:59;;;;;;;9.00;4.25;;;;;;;;;;4901258;28;20144;-74
2023/02/11 20:28:31;;;;;;;10.13;4.82;;;;;;;;;;4885344;28;20071;-74
2023/02/11 20:36:18;;;;;;;8.85;4.22;;;;;;;;;;5009788;28;20133;-70
2023/02/11 20:38:48;;;;;;;8.98;4.22;;;;;;;;;;5035879;28;20049;-70
2023/02/11 20:41:18;;;;;;;8.23;4.20;;;;;;;;;;4997011;28;20077;-70
2023/02/11 20:43:47;;;;;;;9.63;4.07;;;;;;;;;;4974447;28;20045;-76
2023/02/11 20:46:19;;;;;;;10.27;4.38;;;;;;;;;;5005620;28;20044;-74
2023/02/11 20:48:47;;;;;;;10.82;4.18;;;;;;;;;;5004879;28;20139;-72
2023/02/11 20:56:44;;;;;;;10.60;4.72;;;;;;;;;;4993705;27;20418;-74
2023/02/11 20:59:18;;;;;;;8.93;4.10;;;;;;;;;;4988678;28;20049;-72
2023/02/11 21:01:52;;;;;;;11.50;4.60;;;;;;;;;;4988154;28;20053;-78
2023/02/11 21:04:28;;;;;;;10.77;4.68;;;;;;;;;;4932871;28;20066;-75
2023/02/11 21:10:17;;;;;;;9.55;4.32;;;;;;;;;;5132114;27;20431;-78
2023/02/11 21:12:45;;;;;;;8.20;3.83;;;;;;;;;;5031351;28;20099;-72
2023/02/11 21:18:07;;;;;;;9.75;4.28;;;;;;;;;;5032359;27;20515;-78
2023/02/11 21:20:44;;;;;;;11.23;4.50;;;;;;;;;;4994336;28;20050;-74
2023/02/11 21:25:45;;;;;;;7.53;3.92;;;;;;;;;;4954837;28;20059;-76
2023/02/11 21:28:12;;;;;;;9.65;4.05;;;;;;;;;;4907840;28;20057;-69
2023/02/11 21:30:41;;;;;;;9.20;4.00;;;;;;;;;;4982380;28;20049;-72
2023/02/11 21:33:12;;;;;;;9.15;3.90;;;;;;;;;;4965769;28;20050;-73
2023/02/11 21:35:40;;;;;;;8.93;4.38;;;;;;;;;;4938928;28;20331;-73